SKBGSKEJ

Guest
Details From SKBG - PALONEGRO
To SKEJ - YARIGUIES
Flight Number -
Tags generated
Created
Modified
Stats Distance 38 nm / 70 km
Max Altitude 0 ft / 0 m
Waypoints 2
Social Downloads 0
Likes 0
Share VATSIM

Download

Looking for another format? Having issues loading an existing format? Contact us
Advertisement - Login to hide

Notes

Basic altitude profile: - Ascent Rate: 500ft/min - Ascent Speed: 250kts - Cruise Altitude: 6500ft - Cruise Speed: 420kts - Descent Rate: 500ft/min - Descent Speed: 250kts Options: - Use NATs: no - Use PACOTS: no - Use low airways: no - Use high airways: no

Route

SKBG SKEJ

ID Type Via Altitude Latitude Longitude Leg Dist Tot Dist Heading (true) Name
O SKBG APT - 0 ft / 0 m 7.12650˚ -73.18476˚ - 0 nm - PALONEGRO
O SKEJ APT - 0 ft / 0 m 7.02433˚ -73.80680˚ 37 nm 37 nm 261° / 261° YARIGUIES

Altitude Profile

Advertisement - Login to hide

SKBG

Details ICAO SKBG (BGA)
Name PALONEGRO
Region Colombia
Timezone America/Bogota (UTC-5.0)
Stats Elevation 3,896 ft / 1,188 m (AMSL)
Location 7.126500° -73.184764°
Runways 1
Magnetic Variation 8.233° W

METAR

SKBG 181400Z 21006KT 9999 FEW010 22/15 A3002

Decode

TAF

Not found

Departure Runways

ID Width Length Bearing (true) Bearing (mag) Surface Threshold Offset Overrun Length
16 164 ft / 50 m 7,452 ft / 2,271 m 159.37° 167.60° Asphalt 0 ft / 0 m 0 ft / 0 m
34 164 ft / 50 m 7,452 ft / 2,271 m 339.37° 347.60° Asphalt 0 ft / 0 m 0 ft / 0 m

SKEJ

Details ICAO SKEJ (EJA)
Name YARIGUIES
Region Colombia
Timezone America/Bogota (UTC-5.0)
Stats Elevation 412 ft / 126 m (AMSL)
Location 7.024329° -73.806798°
Runways 1
Magnetic Variation 7.817° W

METAR

SKEJ 181400Z 20003KT CAVOK 28/24 A2985

Decode

TAF

Not found

Destination Runways

ID Width Length Bearing (true) Bearing (mag) Surface Threshold Offset Overrun Length
04 148 ft / 45 m 5,930 ft / 1,808 m 30.76° 38.58° Asphalt 0 ft / 0 m 0 ft / 0 m
22 148 ft / 45 m 5,930 ft / 1,808 m 210.76° 218.58° Asphalt 0 ft / 0 m 0 ft / 0 m

Popular Alternatives